sensor_id;sensor_type;location;lat;lon;timestamp;pressure;altitude;pressure_sealevel;temperature;humidity
39773;BME280;25451;51.960;6.250;2023-02-21T00:01:27;101864.69;;;10.04;81.72
39773;BME280;25451;51.960;6.250;2023-02-21T00:04:11;101870.66;;;10.01;81.56
39773;BME280;25451;51.960;6.250;2023-02-21T00:06:55;101868.06;;;10.07;81.51
39773;BME280;25451;51.960;6.250;2023-02-21T00:09:39;101861.28;;;10.02;81.52
39773;BME280;25451;51.960;6.250;2023-02-21T00:12:23;101868.06;;;10.07;81.39
39773;BME280;25451;51.960;6.250;2023-02-21T00:15:08;101865.31;;;10.07;81.60
39773;BME280;25451;51.960;6.250;2023-02-21T00:17:52;101873.59;;;10.07;81.74
39773;BME280;25451;51.960;6.250;2023-02-21T00:20:36;101868.06;;;10.07;81.59
39773;BME280;25451;51.960;6.250;2023-02-21T00:23:20;101867.03;;;10.08;81.58
39773;BME280;25451;51.960;6.250;2023-02-21T00:26:04;101867.84;;;10.08;81.67
39773;BME280;25451;51.960;6.250;2023-02-21T00:28:48;101860.66;;;10.07;81.47
39773;BME280;25451;51.960;6.250;2023-02-21T00:31:31;101865.31;;;10.07;81.61
39773;BME280;25451;51.960;6.250;2023-02-21T00:34:15;101860.44;;;10.09;81.66
39773;BME280;25451;51.960;6.250;2023-02-21T00:36:59;101857.03;;;10.07;81.44
39773;BME280;25451;51.960;6.250;2023-02-21T00:39:43;101853.03;;;10.02;81.52
39773;BME280;25451;51.960;6.250;2023-02-21T00:42:27;101857.25;;;10.05;81.60
39773;BME280;25451;51.960;6.250;2023-02-21T00:45:10;101818.69;;;9.85;81.59
39773;BME280;25451;51.960;6.250;2023-02-21T00:47:54;101850.25;;;10.02;81.68
39773;BME280;25451;51.960;6.250;2023-02-21T00:50:38;101851.53;;;10.07;81.70
39773;BME280;25451;51.960;6.250;2023-02-21T00:53:25;101854.28;;;10.07;81.73
39773;BME280;25451;51.960;6.250;2023-02-21T00:56:09;101848.13;;;10.04;81.67
39773;BME280;25451;51.960;6.250;2023-02-21T00:58:53;101844.53;;;10.04;81.71
39773;BME280;25451;51.960;6.250;2023-02-21T01:01:36;101848.13;;;10.04;81.70
39773;BME280;25451;51.960;6.250;2023-02-21T01:04:20;101845.38;;;10.04;81.68
39773;BME280;25451;51.960;6.250;2023-02-21T01:07:04;101839.84;;;10.04;81.62
39773;BME280;25451;51.960;6.250;2023-02-21T01:09:48;101837.09;;;10.04;81.75
39773;BME280;25451;51.960;6.250;2023-02-21T01:12:32;101837.56;;;10.01;81.70
39773;BME280;25451;51.960;6.250;2023-02-21T01:15:16;101853.66;;;10.04;81.60
39773;BME280;25451;51.960;6.250;2023-02-21T01:18:00;101846.66;;;10.02;81.65
39773;BME280;25451;51.960;6.250;2023-02-21T01:20:44;101841.75;;;10.04;81.65
39773;BME280;25451;51.960;6.250;2023-02-21T01:23:28;101833.53;;;9.97;81.72
39773;BME280;25451;51.960;6.250;2023-02-21T01:26:13;101843.06;;;10.01;81.85
39773;BME280;25451;51.960;6.250;2023-02-21T01:28:57;101841.13;;;10.02;81.66
39773;BME280;25451;51.960;6.250;2023-02-21T01:31:41;101840.31;;;10.01;81.66
39773;BME280;25451;51.960;6.250;2023-02-21T01:34:25;101843.06;;;10.01;81.78
39773;BME280;25451;51.960;6.250;2023-02-21T01:37:08;101850.25;;;10.02;81.83
39773;BME280;25451;51.960;6.250;2023-02-21T01:39:52;101837.56;;;10.01;81.74
39773;BME280;25451;51.960;6.250;2023-02-21T01:42:36;101832.44;;;9.98;81.90
39773;BME280;25451;51.960;6.250;2023-02-21T01:48:11;101821.19;;;10.00;81.54
39773;BME280;25451;51.960;6.250;2023-02-21T01:50:57;101826.50;;;10.01;81.86
39773;BME280;25451;51.960;6.250;2023-02-21T01:53:43;101823.13;;;9.99;81.91
39773;BME280;25451;51.960;6.250;2023-02-21T01:56:28;101821.88;;;9.95;81.75
39773;BME280;25451;51.960;6.250;2023-02-21T01:59:13;101828.00;;;9.97;81.76
39773;BME280;25451;51.960;6.250;2023-02-21T02:02:03;101825.66;;;10.01;81.76
39773;BME280;25451;51.960;6.250;2023-02-21T02:04:50;101817.59;;;9.99;81.68
39773;BME280;25451;51.960;6.250;2023-02-21T02:07:36;101815.69;;;10.00;82.03
39773;BME280;25451;51.960;6.250;2023-02-21T02:10:21;101801.06;;;9.93;81.95
39773;BME280;25451;51.960;6.250;2023-02-21T02:13:09;101821.00;;;10.01;81.91
39773;BME280;25451;51.960;6.250;2023-02-21T02:16:02;101798.06;;;10.01;81.86
39773;BME280;25451;51.960;6.250;2023-02-21T02:24:39;101799.34;;;9.98;81.79
39773;BME280;25451;51.960;6.250;2023-02-21T02:27:41;101800.22;;;9.99;81.72
39773;BME280;25451;51.960;6.250;2023-02-21T02:30:28;101796.38;;;10.00;81.70
39773;BME280;25451;51.960;6.250;2023-02-21T02:33:36;101792.78;;;9.99;81.81
39773;BME280;25451;51.960;6.250;2023-02-21T02:36:18;101800.22;;;9.99;81.84
39773;BME280;25451;51.960;6.250;2023-02-21T02:39:27;101794.69;;;9.99;81.73
39773;BME280;25451;51.960;6.250;2023-02-21T02:44:34;101798.09;;;9.94;81.82
39773;BME280;25451;51.960;6.250;2023-02-21T02:47:04;101796.81;;;9.97;81.86
39773;BME280;25451;51.960;6.250;2023-02-21T02:49:32;101803.81;;;9.99;81.97
39773;BME280;25451;51.960;6.250;2023-02-21T02:52:06;101794.28;;;9.95;82.00
39773;BME280;25451;51.960;6.250;2023-02-21T02:54:32;101792.97;;;9.98;82.05
39773;BME280;25451;51.960;6.250;2023-02-21T02:56:59;101798.31;;;9.99;81.87
39773;BME280;25451;51.960;6.250;2023-02-21T02:59:28;101798.31;;;9.99;82.03
39773;BME280;25451;51.960;6.250;2023-02-21T03:05:07;101794.47;;;10.00;81.92
39773;BME280;25451;51.960;6.250;2023-02-21T03:07:49;101795.31;;;10.01;81.94
39773;BME280;25451;51.960;6.250;2023-02-21T03:13:40;101787.47;;;9.98;81.93
39773;BME280;25451;51.960;6.250;2023-02-21T03:16:35;101794.91;;;9.97;81.95
39773;BME280;25451;51.960;6.250;2023-02-21T03:19:07;101799.81;;;9.95;82.20
39773;BME280;25451;51.960;6.250;2023-02-21T03:21:42;101800.84;;;9.94;82.00
39773;BME280;25451;51.960;6.250;2023-02-21T03:24:10;101803.84;;;9.93;81.92
39773;BME280;25451;51.960;6.250;2023-02-21T03:26:40;101800.63;;;9.96;82.15
39773;BME280;25451;51.960;6.250;2023-02-21T03:29:06;101809.13;;;10.01;82.19
39773;BME280;25451;51.960;6.250;2023-02-21T03:31:36;101795.34;;;9.94;82.00
39773;BME280;25451;51.960;6.250;2023-02-21T03:34:04;101791.09;;;9.98;82.01
39773;BME280;25451;51.960;6.250;2023-02-21T03:36:30;101804.88;;;9.98;82.08
39773;BME280;25451;51.960;6.250;2023-02-21T03:38:56;101790.03;;;9.99;82.22
39773;BME280;25451;51.960;6.250;2023-02-21T03:41:21;101798.72;;;9.96;81.98
39773;BME280;25451;51.960;6.250;2023-02-21T03:43:46;101795.97;;;9.96;82.08
39773;BME280;25451;51.960;6.250;2023-02-21T03:46:11;101790.69;;;9.95;82.23
39773;BME280;25451;51.960;6.250;2023-02-21T03:48:37;101786.22;;;9.94;81.90
39773;BME280;25451;51.960;6.250;2023-02-21T03:51:02;101802.75;;;10.00;82.13
39773;BME280;25451;51.960;6.250;2023-02-21T03:53:28;101802.09;;;9.98;82.12
39773;BME280;25451;51.960;6.250;2023-02-21T03:55:53;101800.63;;;9.96;82.07
39773;BME280;25451;51.960;6.250;2023-02-21T03:58:18;101796.19;;;9.95;81.98
39773;BME280;25451;51.960;6.250;2023-02-21T04:00:44;101803.81;;;9.99;82.20
39773;BME280;25451;51.960;6.250;2023-02-21T04:03:09;101810.38;;;9.98;81.89
39773;BME280;25451;51.960;6.250;2023-02-21T04:05:35;101800.84;;;9.94;82.06
39773;BME280;25451;51.960;6.250;2023-02-21T04:08:00;101803.81;;;9.99;82.14
39773;BME280;25451;51.960;6.250;2023-02-21T04:10:26;101802.34;;;9.97;82.23
39773;BME280;25451;51.960;6.250;2023-02-21T04:12:52;101803.81;;;9.99;82.08
39773;BME280;25451;51.960;6.250;2023-02-21T04:15:17;101804.88;;;9.98;82.31
39773;BME280;25451;51.960;6.250;2023-02-21T04:17:43;101795.34;;;9.94;82.21
39773;BME280;25451;51.960;6.250;2023-02-21T04:20:09;101798.09;;;9.94;82.06
39773;BME280;25451;51.960;6.250;2023-02-21T04:22:34;101790.28;;;9.91;82.31
39773;BME280;25451;51.960;6.250;2023-02-21T04:24:59;101797.69;;;9.97;82.48
39773;BME280;25451;51.960;6.250;2023-02-21T04:27:25;101799.34;;;9.98;82.20
39773;BME280;25451;51.960;6.250;2023-02-21T04:29:51;101792.59;;;9.94;82.22
39773;BME280;25451;51.960;6.250;2023-02-21T04:32:16;101807.84;;;9.97;82.52
39773;BME280;25451;51.960;6.250;2023-02-21T04:34:41;101801.47;;;9.96;82.19
39773;BME280;25451;51.960;6.250;2023-02-21T04:37:06;101800.22;;;9.92;82.22
39773;BME280;25451;51.960;6.250;2023-02-21T04:39:32;101789.00;;;9.87;82.29
39773;BME280;25451;51.960;6.250;2023-02-21T04:41:57;101805.31;;;9.95;82.44
39773;BME280;25451;51.960;6.250;2023-02-21T04:44:22;101793.03;;;9.91;82.41
39773;BME280;25451;51.960;6.250;2023-02-21T04:46:48;101806.13;;;9.96;82.22
39773;BME280;25451;51.960;6.250;2023-02-21T04:49:13;101797.47;;;9.92;82.47
39773;BME280;25451;51.960;6.250;2023-02-21T04:51:38;101798.09;;;9.94;82.37
39773;BME280;25451;51.960;6.250;2023-02-21T04:54:04;101795.34;;;9.94;82.40
39773;BME280;25451;51.960;6.250;2023-02-21T04:56:29;101803.19;;;9.97;82.21
39773;BME280;25451;51.960;6.250;2023-02-21T04:58:56;101804.88;;;9.98;82.39
39773;BME280;25451;51.960;6.250;2023-02-21T05:01:22;101800.22;;;9.99;82.55
39773;BME280;25451;51.960;6.250;2023-02-21T05:03:50;101778.63;;;9.89;82.34
39773;BME280;25451;51.960;6.250;2023-02-21T05:06:23;101804.88;;;9.98;82.22
39773;BME280;25451;51.960;6.250;2023-02-21T05:08:50;101805.72;;;9.99;82.35
39773;BME280;25451;51.960;6.250;2023-02-21T05:11:17;101796.19;;;9.95;82.28
39773;BME280;25451;51.960;6.250;2023-02-21T05:13:43;101801.47;;;9.96;82.28
39773;BME280;25451;51.960;6.250;2023-02-21T05:16:08;101791.09;;;9.98;82.27
39773;BME280;25451;51.960;6.250;2023-02-21T05:18:34;101794.28;;;9.95;82.38
39773;BME280;25451;51.960;6.250;2023-02-21T05:21:02;101797.69;;;9.97;82.48
39773;BME280;25451;51.960;6.250;2023-02-21T05:23:27;101795.97;;;9.96;82.37
39773;BME280;25451;51.960;6.250;2023-02-21T05:26:03;101801.94;;;9.93;82.29
39773;BME280;25451;51.960;6.250;2023-02-21T05:28:29;101789.19;;;9.92;82.35
39773;BME280;25451;51.960;6.250;2023-02-21T05:30:54;101788.34;;;9.92;82.37
39773;BME280;25451;51.960;6.250;2023-02-21T05:33:20;101800.44;;;9.97;82.31
39773;BME280;25451;51.960;6.250;2023-02-21T05:35:45;101801.47;;;9.96;82.44
39773;BME280;25451;51.960;6.250;2023-02-21T05:38:12;101804.00;;;9.98;82.27
39773;BME280;25451;51.960;6.250;2023-02-21T05:40:38;101790.47;;;9.90;82.51
39773;BME280;25451;51.960;6.250;2023-02-21T05:43:03;101787.06;;;9.94;82.35
39773;BME280;25451;51.960;6.250;2023-02-21T05:45:28;101791.31;;;9.97;82.42
39773;BME280;25451;51.960;6.250;2023-02-21T05:47:54;101787.91;;;9.95;82.41
39773;BME280;25451;51.960;6.250;2023-02-21T05:50:24;101795.97;;;9.96;82.46
39773;BME280;25451;51.960;6.250;2023-02-21T05:52:50;101798.72;;;9.96;82.42
39773;BME280;25451;51.960;6.250;2023-02-21T05:55:15;101800.63;;;9.96;82.48
39773;BME280;25451;51.960;6.250;2023-02-21T05:57:40;101794.72;;;9.92;82.45
39773;BME280;25451;51.960;6.250;2023-02-21T06:00:06;101793.66;;;9.93;82.38
39773;BME280;25451;51.960;6.250;2023-02-21T06:02:32;101797.47;;;9.92;82.28
39773;BME280;25451;51.960;6.250;2023-02-21T06:04:57;101783.50;;;9.87;82.45
39773;BME280;25451;51.960;6.250;2023-02-21T06:07:22;101796.84;;;9.90;82.45
39773;BME280;25451;51.960;6.250;2023-02-21T06:09:48;101801.06;;;9.93;82.25
39773;BME280;25451;51.960;6.250;2023-02-21T06:12:13;101799.19;;;9.93;82.21
39773;BME280;25451;51.960;6.250;2023-02-21T06:14:38;101795.16;;;9.89;82.45
39773;BME280;25451;51.960;6.250;2023-02-21T06:17:04;101789.22;;;9.86;82.24
39773;BME280;25451;51.960;6.250;2023-02-21T06:19:29;101790.28;;;9.91;82.49
39773;BME280;25451;51.960;6.250;2023-02-21T06:21:54;101806.59;;;9.93;82.53
39773;BME280;25451;51.960;6.250;2023-02-21T06:24:19;101796.84;;;9.90;82.35
39773;BME280;25451;51.960;6.250;2023-02-21T06:26:45;101793.03;;;9.91;82.55
39773;BME280;25451;51.960;6.250;2023-02-21T06:29:11;101794.94;;;9.91;82.43
39773;BME280;25451;51.960;6.250;2023-02-21T06:31:36;101791.31;;;9.90;82.42
39773;BME280;25451;51.960;6.250;2023-02-21T06:34:02;101786.25;;;9.87;82.52
39773;BME280;25451;51.960;6.250;2023-02-21T06:36:28;101787.94;;;9.88;82.66
39773;BME280;25451;51.960;6.250;2023-02-21T06:38:55;101792.16;;;9.91;82.56
39773;BME280;25451;51.960;6.250;2023-02-21T06:41:29;101782.19;;;9.83;82.52
39773;BME280;25451;51.960;6.250;2023-02-21T06:43:56;101792.59;;;9.88;82.46
39773;BME280;25451;51.960;6.250;2023-02-21T06:46:25;101788.78;;;9.89;82.51
39773;BME280;25451;51.960;6.250;2023-02-21T06:48:51;101790.06;;;9.86;82.50
39773;BME280;25451;51.960;6.250;2023-02-21T06:51:17;101793.88;;;9.85;82.58
39773;BME280;25451;51.960;6.250;2023-02-21T06:53:43;101789.22;;;9.79;82.52
39773;BME280;25451;51.960;6.250;2023-02-21T06:56:09;101797.69;;;9.84;82.69
39773;BME280;25451;51.960;6.250;2023-02-21T06:58:35;101802.81;;;9.87;82.54
39773;BME280;25451;51.960;6.250;2023-02-21T07:01:00;101797.28;;;9.87;82.56
39773;BME280;25451;51.960;6.250;2023-02-21T07:03:26;101802.81;;;9.87;82.51
39773;BME280;25451;51.960;6.250;2023-02-21T07:05:51;101794.72;;;9.79;82.63
39773;BME280;25451;51.960;6.250;2023-02-21T07:08:17;101787.94;;;9.82;82.75
39773;BME280;25451;51.960;6.250;2023-02-21T07:10:42;101795.16;;;9.83;82.30
39773;BME280;25451;51.960;6.250;2023-02-21T07:13:08;101802.81;;;9.87;82.45
39773;BME280;25451;51.960;6.250;2023-02-21T07:15:33;101803.63;;;9.88;82.59
39773;BME280;25451;51.960;6.250;2023-02-21T07:17:58;101789.84;;;9.81;82.57
39773;BME280;25451;51.960;6.250;2023-02-21T07:20:23;101801.09;;;9.86;82.64
39773;BME280;25451;51.960;6.250;2023-02-21T07:22:49;101800.69;;;9.83;82.78
39773;BME280;25451;51.960;6.250;2023-02-21T07:25:16;101796.66;;;9.79;82.51
39773;BME280;25451;51.960;6.250;2023-02-21T07:27:42;101810.22;;;9.87;82.76
39773;BME280;25451;51.960;6.250;2023-02-21T07:30:08;101817.63;;;9.86;82.62
39773;BME280;25451;51.960;6.250;2023-02-21T07:32:34;101805.34;;;9.82;82.62
39773;BME280;25451;51.960;6.250;2023-02-21T07:34:59;101808.72;;;9.84;82.86
39773;BME280;25451;51.960;6.250;2023-02-21T07:37:24;101810.84;;;9.82;82.65
39773;BME280;25451;51.960;6.250;2023-02-21T07:39:51;101816.16;;;9.84;82.57
39773;BME280;25451;51.960;6.250;2023-02-21T07:42:17;101823.78;;;9.88;82.46
39773;BME280;25451;51.960;6.250;2023-02-21T07:44:42;101814.66;;;9.81;82.96
39773;BME280;25451;51.960;6.250;2023-02-21T07:47:07;101820.63;;;9.85;82.83
39773;BME280;25451;51.960;6.250;2023-02-21T07:49:37;101812.97;;;9.80;82.60
39773;BME280;25451;51.960;6.250;2023-02-21T07:52:03;101815.72;;;9.87;82.78
39773;BME280;25451;51.960;6.250;2023-02-21T07:54:28;101815.09;;;9.85;82.65
39773;BME280;25451;51.960;6.250;2023-02-21T07:56:53;101812.53;;;9.90;82.78
39773;BME280;25451;51.960;6.250;2023-02-21T07:59:18;101807.47;;;9.87;82.60
39773;BME280;25451;51.960;6.250;2023-02-21T08:01:45;101804.91;;;9.85;82.47
39773;BME280;25451;51.960;6.250;2023-02-21T08:04:11;101808.31;;;9.87;82.78
39773;BME280;25451;51.960;6.250;2023-02-21T08:06:37;101809.13;;;9.88;82.63
39773;BME280;25451;51.960;6.250;2023-02-21T08:09:03;101803.00;;;9.79;82.97
39773;BME280;25451;51.960;6.250;2023-02-21T08:11:29;101806.19;;;9.89;82.84
39773;BME280;25451;51.960;6.250;2023-02-21T08:13:54;101816.78;;;9.92;82.80
39773;BME280;25451;51.960;6.250;2023-02-21T08:16:20;101813.78;;;9.94;82.79
39773;BME280;25451;51.960;6.250;2023-02-21T08:18:48;101812.97;;;9.93;82.71
39773;BME280;25451;51.960;6.250;2023-02-21T08:21:17;101811.25;;;9.92;82.78
39773;BME280;25451;51.960;6.250;2023-02-21T08:23:42;101818.25;;;9.95;82.79
39773;BME280;25451;51.960;6.250;2023-02-21T08:26:07;101815.72;;;9.93;82.83
39773;BME280;25451;51.960;6.250;2023-02-21T08:28:33;101807.88;;;9.90;82.71
39773;BME280;25451;51.960;6.250;2023-02-21T08:30:58;101802.56;;;9.89;82.88
39773;BME280;25451;51.960;6.250;2023-02-21T08:33:24;101809.97;;;9.95;82.57
39773;BME280;25451;51.960;6.250;2023-02-21T08:35:49;101818.03;;;9.96;82.69
39773;BME280;25451;51.960;6.250;2023-02-21T08:38:17;101820.78;;;9.96;82.86
39773;BME280;25451;51.960;6.250;2023-02-21T08:40:42;101804.06;;;9.91;82.75
39773;BME280;25451;51.960;6.250;2023-02-21T08:43:07;101802.13;;;9.92;82.71
39773;BME280;25451;51.960;6.250;2023-02-21T08:45:33;101809.53;;;9.98;82.74
39773;BME280;25451;51.960;6.250;2023-02-21T08:47:58;101810.63;;;9.97;82.76
39773;BME280;25451;51.960;6.250;2023-02-21T08:50:26;101800.22;;;9.92;82.73
39773;BME280;25451;51.960;6.250;2023-02-21T08:52:52;101809.97;;;10.01;83.01
39773;BME280;25451;51.960;6.250;2023-02-21T08:55:18;101818.88;;;10.03;82.96
39773;BME280;25451;51.960;6.250;2023-02-21T08:57:46;101807.41;;;10.00;82.91
39773;BME280;25451;51.960;6.250;2023-02-21T09:00:13;101802.31;;;10.03;83.02
39773;BME280;25451;51.960;6.250;2023-02-21T09:02:38;101814.19;;;10.04;82.91
39773;BME280;25451;51.960;6.250;2023-02-21T09:05:16;101804.22;;;10.03;82.58
39773;BME280;25451;51.960;6.250;2023-02-21T09:07:43;101804.22;;;10.03;82.99
39773;BME280;25451;51.960;6.250;2023-02-21T09:10:09;101812.69;;;10.08;83.02
39773;BME280;25451;51.960;6.250;2023-02-21T09:12:35;101811.84;;;10.08;83.06
39773;BME280;25451;51.960;6.250;2023-02-21T09:15:02;101811.22;;;10.12;82.91
39773;BME280;25451;51.960;6.250;2023-02-21T09:17:27;101806.97;;;10.10;82.93
39773;BME280;25451;51.960;6.250;2023-02-21T09:19:52;101809.31;;;10.13;82.92
39773;BME280;25451;51.960;6.250;2023-02-21T09:22:18;101809.09;;;10.14;83.10
39773;BME280;25451;51.960;6.250;2023-02-21T09:24:43;101807.81;;;10.17;82.84
39773;BME280;25451;51.960;6.250;2023-02-21T09:27:08;101804.00;;;10.18;83.14
39773;BME280;25451;51.960;6.250;2023-02-21T09:29:35;101797.22;;;10.14;83.00
39773;BME280;25451;51.960;6.250;2023-02-21T09:32:01;101796.34;;;10.20;82.90
39773;BME280;25451;51.960;6.250;2023-02-21T09:34:27;101801.88;;;10.20;83.07
39773;BME280;25451;51.960;6.250;2023-02-21T09:36:53;101806.94;;;10.23;83.19
39773;BME280;25451;51.960;6.250;2023-02-21T09:39:19;101803.94;;;10.24;83.04
39773;BME280;25451;51.960;6.250;2023-02-21T09:41:45;101807.56;;;10.25;83.04
39773;BME280;25451;51.960;6.250;2023-02-21T09:44:16;101796.53;;;10.25;83.12
39773;BME280;25451;51.960;6.250;2023-02-21T09:46:49;101806.06;;;10.29;83.02
39773;BME280;25451;51.960;6.250;2023-02-21T09:49:27;101795.66;;;10.24;82.91
39773;BME280;25451;51.960;6.250;2023-02-21T09:51:55;101796.09;;;10.28;82.96
39773;BME280;25451;51.960;6.250;2023-02-21T09:54:32;101798.63;;;10.29;82.94
39773;BME280;25451;51.960;6.250;2023-02-21T09:57:02;101783.59;;;10.19;83.15
39773;BME280;25451;51.960;6.250;2023-02-21T09:59:32;101785.06;;;10.28;82.95
39773;BME280;25451;51.960;6.250;2023-02-21T10:10:17;101797.75;;;10.35;83.09
39773;BME280;25451;51.960;6.250;2023-02-21T10:20:57;101805.59;;;10.38;82.99
39773;BME280;25451;51.960;6.250;2023-02-21T10:23:28;101801.78;;;10.39;83.07
39773;BME280;25451;51.960;6.250;2023-02-21T10:25:59;101797.72;;;10.42;83.15
39773;BME280;25451;51.960;6.250;2023-02-21T10:28:27;101798.59;;;10.42;83.04
39773;BME280;25451;51.960;6.250;2023-02-21T10:30:56;101798.78;;;10.41;83.13
39773;BME280;25451;51.960;6.250;2023-02-21T10:33:22;101796.47;;;10.38;83.04
39773;BME280;25451;51.960;6.250;2023-02-21T10:35:48;101793.25;;;10.41;83.12
39773;BME280;25451;51.960;6.250;2023-02-21T10:38:20;101793.25;;;10.41;83.09
39773;BME280;25451;51.960;6.250;2023-02-21T10:40:53;101797.28;;;10.45;83.04
39773;BME280;25451;51.960;6.250;2023-02-21T10:43:29;101786.06;;;10.40;83.03
39773;BME280;25451;51.960;6.250;2023-02-21T10:46:24;101788.38;;;10.43;83.20
39773;BME280;25451;51.960;6.250;2023-02-21T10:48:52;101804.28;;;10.47;82.99
39773;BME280;25451;51.960;6.250;2023-02-21T10:51:33;101795.59;;;10.44;83.02
39773;BME280;25451;51.960;6.250;2023-02-21T10:54:19;101804.28;;;10.47;82.84
39773;BME280;25451;51.960;6.250;2023-02-21T10:56:46;101792.59;;;10.45;83.11
39773;BME280;25451;51.960;6.250;2023-02-21T10:59:22;101799.84;;;10.46;83.11
39773;BME280;25451;51.960;6.250;2023-02-21T11:01:49;101790.31;;;10.42;82.97
39773;BME280;25451;51.960;6.250;2023-02-21T11:06:48;101799.59;;;10.48;82.96
39773;BME280;25451;51.960;6.250;2023-02-21T11:09:30;101796.00;;;10.47;82.95
39773;BME280;25451;51.960;6.250;2023-02-21T11:17:21;101802.97;;;10.56;82.98
39773;BME280;25451;51.960;6.250;2023-02-21T11:25:00;101804.22;;;10.60;82.96
39773;BME280;25451;51.960;6.250;2023-02-21T11:27:29;101817.41;;;10.58;83.18
39773;BME280;25451;51.960;6.250;2023-02-21T11:29:55;101818.84;;;10.61;82.96
39773;BME280;25451;51.960;6.250;2023-02-21T11:32:48;101809.75;;;10.60;83.11
39773;BME280;25451;51.960;6.250;2023-02-21T11:37:52;101807.78;;;10.61;83.07
39773;BME280;25451;51.960;6.250;2023-02-21T11:40:44;101787.06;;;10.52;83.22
39773;BME280;25451;51.960;6.250;2023-02-21T11:43:18;101795.06;;;10.60;82.95
39773;BME280;25451;51.960;6.250;2023-02-21T11:48:18;101799.50;;;10.61;83.17
39773;BME280;25451;51.960;6.250;2023-02-21T11:50:49;101794.00;;;10.61;83.09
39773;BME280;25451;51.960;6.250;2023-02-21T11:53:27;101802.28;;;10.61;83.00
39773;BME280;25451;51.960;6.250;2023-02-21T11:56:33;101776.88;;;10.52;82.96
39773;BME280;25451;51.960;6.250;2023-02-21T12:07:19;101765.63;;;10.47;83.13
39773;BME280;25451;51.960;6.250;2023-02-21T12:10:21;101777.25;;;10.56;83.13
39773;BME280;25451;51.960;6.250;2023-02-21T12:21:31;101778.31;;;10.55;82.98
39773;BME280;25451;51.960;6.250;2023-02-21T12:24:19;101771.13;;;10.54;83.18
39773;BME280;25451;51.960;6.250;2023-02-21T12:35:10;101755.84;;;10.51;83.08
39773;BME280;25451;51.960;6.250;2023-02-21T12:40:28;101764.09;;;10.58;82.88
39773;BME280;25451;51.960;6.250;2023-02-21T12:43:10;101758.56;;;10.58;82.95
39773;BME280;25451;51.960;6.250;2023-02-21T12:45:52;101744.78;;;10.51;82.89
39773;BME280;25451;51.960;6.250;2023-02-21T12:50:54;101752.38;;;10.62;83.26
39773;BME280;25451;51.960;6.250;2023-02-21T12:55:58;101740.50;;;10.62;82.99
39773;BME280;25451;51.960;6.250;2023-02-21T13:01:17;101725.59;;;10.63;82.92
39773;BME280;25451;51.960;6.250;2023-02-21T13:04:02;101722.22;;;10.61;82.80
39773;BME280;25451;51.960;6.250;2023-02-21T13:09:16;101731.94;;;10.70;82.93
39773;BME280;25451;51.960;6.250;2023-02-21T13:12:03;101720.88;;;10.70;82.96
39773;BME280;25451;51.960;6.250;2023-02-21T13:14:34;101722.56;;;10.71;82.83
39773;BME280;25451;51.960;6.250;2023-02-21T13:17:01;101717.03;;;10.71;82.80
39773;BME280;25451;51.960;6.250;2023-02-21T13:19:34;101712.22;;;10.66;82.85
39773;BME280;25451;51.960;6.250;2023-02-21T13:28:10;101699.66;;;10.70;83.09
39773;BME280;25451;51.960;6.250;2023-02-21T13:30:41;101697.91;;;10.76;82.98
39773;BME280;25451;51.960;6.250;2023-02-21T13:33:23;101694.50;;;10.74;83.00
39773;BME280;25451;51.960;6.250;2023-02-21T13:35:49;101693.84;;;10.78;82.93
39773;BME280;25451;51.960;6.250;2023-02-21T13:38:17;101701.28;;;10.78;82.89
39773;BME280;25451;51.960;6.250;2023-02-21T13:41:06;101700.84;;;10.81;82.75
39773;BME280;25451;51.960;6.250;2023-02-21T13:43:35;101696.63;;;10.78;82.92
39773;BME280;25451;51.960;6.250;2023-02-21T13:57:43;101696.56;;;10.85;82.68
39773;BME280;25451;51.960;6.250;2023-02-21T14:08:13;101702.47;;;10.89;82.90
39773;BME280;25451;51.960;6.250;2023-02-21T14:16:17;101677.84;;;10.87;82.74
39773;BME280;25451;51.960;6.250;2023-02-21T14:18:48;101688.00;;;10.93;82.99
39773;BME280;25451;51.960;6.250;2023-02-21T14:21:19;101685.00;;;10.95;83.02
39773;BME280;25451;51.960;6.250;2023-02-21T14:23:54;101686.91;;;10.94;82.87
39773;BME280;25451;51.960;6.250;2023-02-21T14:26:40;101685.84;;;10.95;83.05
39773;BME280;25451;51.960;6.250;2023-02-21T14:32:14;101682.00;;;10.96;82.92
39773;BME280;25451;51.960;6.250;2023-02-21T14:43:08;101675.63;;;10.96;82.78
39773;BME280;25451;51.960;6.250;2023-02-21T14:45:58;101677.34;;;10.97;83.01
39773;BME280;25451;51.960;6.250;2023-02-21T14:49:00;101677.34;;;10.97;82.78
39773;BME280;25451;51.960;6.250;2023-02-21T15:00:03;101674.34;;;10.98;82.80
39773;BME280;25451;51.960;6.250;2023-02-21T15:05:38;101666.28;;;10.97;82.94
39773;BME280;25451;51.960;6.250;2023-02-21T15:08:21;101659.03;;;10.96;83.05
39773;BME280;25451;51.960;6.250;2023-02-21T15:10:49;101670.28;;;11.01;82.97
39773;BME280;25451;51.960;6.250;2023-02-21T15:13:41;101667.28;;;11.02;82.97
39773;BME280;25451;51.960;6.250;2023-02-21T15:16:09;101670.03;;;11.02;82.97
39773;BME280;25451;51.960;6.250;2023-02-21T15:18:39;101625.19;;;10.82;82.72
39773;BME280;25451;51.960;6.250;2023-02-21T15:23:44;101662.59;;;11.03;82.99
39773;BME280;25451;51.960;6.250;2023-02-21T15:26:23;101667.91;;;11.04;83.00
39773;BME280;25451;51.960;6.250;2023-02-21T15:29:10;101661.53;;;11.04;82.62
39773;BME280;25451;51.960;6.250;2023-02-21T15:31:44;101657.94;;;11.03;82.84
39773;BME280;25451;51.960;6.250;2023-02-21T15:34:31;101657.09;;;11.03;82.87
39773;BME280;25451;51.960;6.250;2023-02-21T15:37:07;101660.69;;;11.03;82.78
39773;BME280;25451;51.960;6.250;2023-02-21T15:39:39;101652.84;;;11.00;82.77
39773;BME280;25451;51.960;6.250;2023-02-21T15:42:08;101659.00;;;11.02;82.76
39773;BME280;25451;51.960;6.250;2023-02-21T15:44:43;101651.31;;;11.04;82.79
39773;BME280;25451;51.960;6.250;2023-02-21T15:47:13;101641.19;;;10.98;82.87
39773;BME280;25451;51.960;6.250;2023-02-21T15:49:46;101649.41;;;11.05;82.91